createdAt,value
2018-12-23T00:02:08.217Z,18.75
2018-12-23T00:07:14.373Z,19.49
2018-12-23T00:12:21.006Z,18.50
2018-12-23T00:17:27.185Z,18.39
2018-12-23T00:22:33.525Z,24.25
2018-12-23T00:27:39.659Z,23.09
2018-12-23T00:32:45.882Z,22.44
2018-12-23T00:37:51.997Z,17.03
2018-12-23T00:42:58.293Z,20.08
2018-12-23T00:48:04.422Z,19.37
2018-12-23T00:53:10.605Z,21.52
2018-12-23T00:58:16.847Z,19.42
2018-12-23T01:03:22.902Z,20.86
2018-12-23T01:08:29.177Z,20.88
2018-12-23T01:13:35.360Z,25.17
2018-12-23T01:18:41.528Z,19.53
2018-12-23T01:23:47.916Z,19.13
2018-12-23T01:28:54.059Z,19.67
2018-12-23T01:34:00.313Z,19.88
2018-12-23T01:39:06.469Z,22.82
2018-12-23T01:44:12.626Z,19.84
2018-12-23T01:49:18.737Z,21.69
2018-12-23T01:54:25.002Z,22.01
2018-12-23T01:59:31.116Z,22.16
2018-12-23T02:04:37.267Z,21.52
2018-12-23T02:09:43.403Z,21.98
2018-12-23T02:14:49.532Z,18.59
2018-12-23T02:19:55.657Z,17.96
2018-12-23T02:25:01.986Z,20.69
2018-12-23T02:30:08.143Z,20.40
2018-12-23T02:35:14.289Z,18.35
2018-12-23T02:40:20.422Z,23.79
2018-12-23T02:45:26.570Z,22.31
2018-12-23T02:50:32.668Z,22.19
2018-12-23T02:55:38.822Z,18.04
2018-12-23T03:00:44.965Z,14.62
2018-12-23T03:05:51.112Z,17.70
2018-12-23T03:10:57.228Z,20.37
2018-12-23T03:16:03.380Z,15.98
2018-12-23T03:21:09.523Z,16.88
2018-12-23T03:26:15.749Z,18.80
2018-12-23T03:31:21.930Z,15.66
2018-12-23T03:36:28.288Z,21.38
2018-12-23T03:41:34.435Z,21.97
2018-12-23T03:46:40.696Z,17.91
2018-12-23T03:51:46.845Z,16.88
2018-12-23T03:56:52.955Z,24.30
2018-12-23T04:01:59.092Z,19.05
2018-12-23T04:07:05.310Z,23.56
2018-12-23T04:12:11.415Z,20.28
2018-12-23T04:17:17.571Z,23.53
2018-12-23T04:22:23.705Z,20.98
2018-12-23T04:27:29.855Z,23.33
2018-12-23T04:32:35.957Z,18.14
2018-12-23T04:37:42.196Z,19.84
2018-12-23T04:42:48.306Z,21.38
2018-12-23T04:47:54.461Z,17.57
2018-12-23T04:53:00.611Z,20.14
2018-12-23T04:58:06.737Z,19.92
2018-12-23T05:03:12.980Z,14.70
2018-12-23T05:08:19.252Z,24.24
2018-12-23T05:13:25.378Z,18.98
2018-12-23T05:18:31.532Z,17.41
2018-12-23T05:23:37.697Z,17.30
2018-12-23T05:28:43.851Z,18.30
2018-12-23T05:33:49.969Z,13.36
2018-12-23T05:38:56.176Z,17.28
2018-12-23T05:44:02.300Z,20.44
2018-12-23T05:49:08.476Z,21.64
2018-12-23T05:54:14.613Z,20.52
2018-12-23T05:59:20.849Z,16.30
2018-12-23T06:04:26.967Z,20.79
2018-12-23T06:09:33.116Z,15.77
2018-12-23T06:14:39.202Z,23.07
2018-12-23T06:19:45.349Z,22.70
2018-12-23T06:24:51.497Z,20.86
2018-12-23T06:29:57.682Z,23.48
2018-12-23T06:35:03.822Z,24.00
2018-12-23T06:40:10.012Z,23.11
2018-12-23T06:45:16.146Z,22.38
2018-12-23T06:50:22.417Z,25.15
2018-12-23T06:55:28.533Z,26.33
2018-12-23T07:00:34.682Z,19.58
2018-12-23T07:05:40.806Z,22.05
2018-12-23T07:10:47.071Z,18.41
2018-12-23T07:15:53.217Z,21.58
2018-12-23T07:20:59.525Z,22.00
2018-12-23T07:26:05.649Z,21.61
2018-12-23T07:31:11.911Z,21.31
2018-12-23T07:36:18.068Z,20.02
2018-12-23T07:41:24.271Z,22.29
2018-12-23T07:46:30.457Z,21.38
2018-12-23T07:51:36.692Z,17.06
2018-12-23T07:56:42.806Z,18.05
2018-12-23T08:01:48.941Z,22.14
2018-12-23T08:06:55.074Z,22.48
2018-12-23T08:12:01.219Z,18.11
2018-12-23T08:17:07.334Z,23.98
2018-12-23T08:22:13.442Z,21.25
2018-12-23T08:27:19.544Z,22.87
2018-12-23T08:32:25.726Z,23.84
2018-12-23T08:37:31.911Z,19.05
2018-12-23T08:42:38.060Z,25.24
2018-12-23T08:47:44.298Z,24.63
2018-12-23T08:52:50.453Z,19.33
2018-12-23T08:57:56.592Z,23.65
2018-12-23T09:03:02.777Z,21.25
2018-12-23T09:08:08.956Z,22.92
2018-12-23T09:13:15.269Z,30.58
2018-12-23T09:18:21.414Z,31.09
2018-12-23T09:23:27.610Z,28.99
2018-12-23T09:28:33.717Z,35.55
2018-12-23T09:33:39.880Z,31.99
2018-12-23T09:38:46.016Z,37.29
2018-12-23T09:43:52.183Z,38.62
2018-12-23T09:48:59.228Z,38.02
2018-12-23T09:54:05.420Z,42.83
2018-12-23T09:59:11.549Z,38.44
2018-12-23T10:04:17.777Z,38.20
2018-12-23T10:09:23.890Z,47.04
2018-12-23T10:14:30.070Z,36.55
2018-12-23T10:19:36.197Z,37.78
2018-12-23T10:24:42.361Z,38.89
2018-12-23T10:29:48.476Z,33.23
2018-12-23T10:34:54.675Z,35.94
2018-12-23T10:40:00.946Z,42.30
2018-12-23T10:45:07.253Z,36.73
2018-12-23T10:50:13.368Z,45.20
2018-12-23T10:55:19.583Z,45.46
2018-12-23T11:00:25.778Z,44.36
2018-12-23T11:05:31.946Z,47.19
2018-12-23T11:10:38.109Z,28.16
2018-12-23T11:15:44.358Z,41.62
2018-12-23T11:20:50.558Z,39.08
2018-12-23T11:25:56.838Z,30.65
2018-12-23T11:31:03.090Z,36.47
2018-12-23T11:36:09.300Z,25.38
2018-12-23T11:41:15.550Z,22.27
2018-12-23T11:46:21.681Z,20.76
2018-12-23T11:51:27.877Z,30.95
2018-12-23T11:56:36.934Z,21.85
2018-12-23T12:01:43.074Z,24.00
2018-12-23T12:06:49.259Z,22.33
2018-12-23T12:11:55.381Z,21.94
2018-12-23T12:17:01.596Z,19.33
2018-12-23T12:22:07.779Z,25.86
2018-12-23T12:27:13.956Z,22.23
2018-12-23T12:32:20.135Z,17.85
2018-12-23T12:37:26.286Z,23.49
2018-12-23T12:42:32.502Z,17.78
2018-12-23T12:47:40.090Z,21.15
2018-12-23T12:52:46.266Z,20.13
2018-12-23T12:57:52.431Z,18.71
2018-12-23T13:02:59.489Z,21.35
2018-12-23T13:08:05.630Z,24.19
2018-12-23T13:13:11.845Z,21.71
2018-12-23T13:18:17.956Z,20.28
2018-12-23T13:23:24.096Z,20.52
2018-12-23T13:28:30.260Z,21.22
2018-12-23T13:33:36.435Z,21.89
2018-12-23T13:38:42.591Z,23.63
2018-12-23T13:43:48.814Z,20.40
2018-12-23T13:48:54.985Z,22.97
2018-12-23T13:54:01.244Z,25.94
2018-12-23T13:59:07.398Z,23.62
2018-12-23T14:04:13.909Z,26.14
2018-12-23T14:09:20.053Z,24.86
2018-12-23T14:14:26.208Z,28.04
2018-12-23T14:19:32.343Z,25.34
2018-12-23T14:24:38.507Z,20.48
2018-12-23T14:29:44.667Z,20.52
2018-12-23T14:34:50.828Z,19.46
2018-12-23T14:39:56.979Z,21.90
2018-12-23T14:45:03.528Z,18.96
2018-12-23T14:50:09.658Z,19.04
2018-12-23T14:55:15.861Z,24.16
2018-12-23T15:00:22.020Z,26.12
2018-12-23T15:05:28.172Z,22.31
2018-12-23T15:10:34.330Z,19.45
2018-12-23T15:15:40.492Z,24.29
2018-12-23T15:20:46.618Z,19.47
2018-12-23T15:25:52.829Z,20.50
2018-12-23T15:30:58.968Z,22.73
2018-12-23T15:36:05.186Z,23.50
2018-12-23T15:41:11.456Z,19.07
2018-12-23T15:46:17.633Z,17.31
2018-12-23T15:51:23.866Z,20.48
2018-12-23T15:56:30.118Z,19.86
2018-12-23T16:01:36.181Z,19.63
2018-12-23T16:06:42.386Z,14.28
2018-12-23T16:11:48.585Z,15.21
2018-12-23T16:16:54.787Z,14.58
2018-12-23T16:22:00.952Z,11.68
2018-12-23T16:27:07.202Z,13.56
2018-12-23T16:32:13.397Z,18.58
2018-12-23T16:37:19.522Z,19.10
2018-12-23T16:42:25.652Z,17.17
2018-12-23T16:47:31.791Z,18.35
2018-12-23T16:52:37.982Z,19.99
2018-12-23T16:57:44.163Z,17.12
2018-12-23T17:02:50.383Z,15.05
2018-12-23T17:07:56.672Z,20.18
2018-12-23T17:13:02.914Z,17.50
2018-12-23T17:18:09.059Z,12.84
2018-12-23T17:23:15.319Z,10.46
2018-12-23T17:28:21.551Z,11.02
2018-12-23T17:33:27.735Z,10.68
2018-12-23T17:38:34.211Z,12.00
2018-12-23T17:43:40.418Z,11.51
2018-12-23T17:48:46.616Z,12.98
2018-12-23T17:53:52.922Z,11.75
2018-12-23T17:58:59.079Z,10.00
2018-12-23T18:04:05.986Z,9.87
2018-12-23T18:09:12.121Z,7.54
2018-12-23T18:14:18.306Z,8.16
2018-12-23T18:19:24.477Z,6.91
2018-12-23T18:24:30.607Z,8.66
2018-12-23T18:29:36.732Z,9.91
2018-12-23T18:34:42.898Z,9.27
2018-12-23T18:39:49.075Z,7.62
2018-12-23T18:44:55.242Z,7.78
2018-12-23T18:50:01.384Z,8.09
2018-12-23T18:55:07.550Z,8.41
2018-12-23T19:00:13.670Z,7.83
2018-12-23T19:05:19.831Z,8.44
2018-12-23T19:10:26.005Z,10.59
2018-12-23T19:15:32.209Z,10.45
2018-12-23T19:20:38.345Z,11.58
2018-12-23T19:25:44.521Z,12.67
2018-12-23T19:30:50.673Z,12.37
2018-12-23T19:35:56.886Z,10.27
2018-12-23T19:41:03.032Z,8.15
2018-12-23T19:46:09.310Z,7.39
2018-12-23T19:51:15.494Z,7.52
2018-12-23T19:56:21.718Z,6.91
2018-12-23T20:01:27.993Z,5.39
2018-12-23T20:06:34.205Z,3.72
2018-12-23T20:11:40.354Z,3.93
2018-12-23T20:16:47.461Z,3.80
2018-12-23T20:21:53.652Z,4.77
2018-12-23T20:26:59.818Z,6.19
2018-12-23T20:32:05.952Z,6.71
2018-12-23T20:37:12.129Z,8.23
2018-12-23T20:42:18.341Z,9.12
2018-12-23T20:47:24.512Z,7.23
2018-12-23T20:52:30.669Z,6.20
2018-12-23T20:57:36.868Z,4.66
2018-12-23T21:02:42.998Z,5.79
2018-12-23T21:07:49.221Z,2.92
2018-12-23T21:12:55.349Z,3.68
2018-12-23T21:18:01.539Z,2.24
2018-12-23T21:23:07.649Z,3.15
2018-12-23T21:28:13.822Z,2.66
2018-12-23T21:33:19.950Z,4.94
2018-12-23T21:38:26.457Z,3.86
2018-12-23T21:43:32.611Z,3.71
2018-12-23T21:48:38.764Z,1.87
2018-12-23T21:53:44.909Z,2.02
2018-12-23T21:58:51.053Z,2.95
2018-12-23T22:03:57.171Z,3.36
2018-12-23T22:09:03.488Z,4.66
2018-12-23T22:14:09.606Z,2.68
2018-12-23T22:19:16.916Z,3.97
2018-12-23T22:24:23.041Z,4.01
2018-12-23T22:29:29.240Z,3.68
2018-12-23T22:34:35.484Z,3.76
2018-12-23T22:39:42.146Z,3.86
2018-12-23T22:44:47.345Z,2.94
2018-12-23T22:49:53.733Z,3.44
2018-12-23T22:54:59.895Z,3.37
2018-12-23T23:00:06.056Z,3.19
2018-12-23T23:05:12.175Z,3.50
2018-12-23T23:10:18.320Z,3.85
2018-12-23T23:15:24.486Z,4.75
2018-12-23T23:20:30.686Z,4.78
2018-12-23T23:25:36.811Z,5.49
2018-12-23T23:30:43.097Z,5.98
2018-12-23T23:35:49.237Z,5.89
2018-12-23T23:40:55.367Z,4.35
2018-12-23T23:46:01.504Z,4.76
2018-12-23T23:51:07.659Z,3.91
2018-12-23T23:56:13.804Z,3.98
